Time,TemperatureF,DewpointF,PressureIn,WindDirection,WindDirectionDegrees,WindSpeedMPH,WindSpeedGustMPH,Humidity,HourlyPrecipIn,Conditions,Clouds,dailyrainin,SoftwareType,DateUTC
2013-08-24 00:13:00,66.4,62.7,30.11,NW,323,7.6,7.6,88,0.00,,---,0.00,VWS V13.01,2013-08-24 07:13:00,
2013-08-24 00:18:00,66.4,62.7,30.11,NNW,327,9.6,9.6,88,0.00,,---,0.00,VWS V13.01,2013-08-24 07:18:00,
2013-08-24 00:23:00,66.2,62.5,30.11,NNW,334,5.8,8.7,88,0.00,,---,0.00,VWS V13.01,2013-08-24 07:23:00,
2013-08-24 00:28:00,66.2,62.9,30.11,WNW,302,8.1,8.1,89,0.00,,---,0.00,VWS V13.01,2013-08-24 07:28:00,
2013-08-24 00:33:00,66.0,63.0,30.14,NW,313,8.1,8.1,90,0.00,,---,0.00,VWS V13.01,2013-08-24 07:33:00,
2013-08-24 00:38:00,66.0,63.0,30.14,NW,313,8.1,8.1,90,0.00,,---,0.00,VWS V13.01,2013-08-24 07:38:00,
2013-08-24 00:43:00,66.0,63.0,30.14,NW,319,6.3,6.3,90,0.00,,---,0.00,VWS V13.01,2013-08-24 07:43:00,
2013-08-24 00:48:00,66.0,63.0,30.14,NW,317,4.0,5.8,90,0.00,,---,0.00,VWS V13.01,2013-08-24 07:48:00,
2013-08-24 00:53:00,66.0,63.0,30.14,NW,321,5.8,5.8,90,0.00,,---,0.00,VWS V13.01,2013-08-24 07:53:00,
2013-08-24 00:58:00,65.8,62.8,30.14,NNW,327,4.0,4.0,90,0.00,,---,0.00,VWS V13.01,2013-08-24 07:58:00,
2013-08-24 01:03:00,65.8,62.8,30.14,NW,324,4.9,4.9,90,0.00,,---,0.00,VWS V13.01,2013-08-24 08:03:00,
2013-08-24 01:08:00,65.8,62.8,30.14,NW,315,4.0,4.0,90,0.00,,---,0.00,VWS V13.01,2013-08-24 08:08:00,
2013-08-24 01:13:00,65.8,62.5,30.14,NW,308,3.1,3.1,89,0.00,,---,0.00,VWS V13.01,2013-08-24 08:13:00,
2013-08-24 01:18:00,65.8,62.5,30.11,NW,316,4.0,5.4,89,0.00,,---,0.00,VWS V13.01,2013-08-24 08:18:00,
2013-08-24 01:23:00,65.8,62.5,30.11,WNW,296,4.0,4.0,89,0.00,,---,0.00,VWS V13.01,2013-08-24 08:23:00,
2013-08-24 01:28:00,65.8,62.5,30.11,West,270,6.3,6.3,89,0.00,,---,0.00,VWS V13.01,2013-08-24 08:28:00,
2013-08-24 01:33:00,65.8,62.5,30.11,West,274,4.9,4.9,89,0.00,,---,0.00,VWS V13.01,2013-08-24 08:33:00,
2013-08-24 01:38:00,65.8,62.5,30.11,West,269,4.9,4.9,89,0.00,,---,0.00,VWS V13.01,2013-08-24 08:38:00,
2013-08-24 01:43:00,65.8,62.5,30.11,West,268,4.9,4.9,89,0.00,,---,0.00,VWS V13.01,2013-08-24 08:43:00,
2013-08-24 01:48:00,65.8,62.5,30.14,West,271,3.1,3.1,89,0.00,,---,0.00,VWS V13.01,2013-08-24 08:48:00,
2013-08-24 01:53:00,65.8,62.5,30.14,WSW,256,5.4,5.4,89,0.00,,---,0.00,VWS V13.01,2013-08-24 08:53:00,
2013-08-24 01:58:00,65.7,62.3,30.14,WSW,246,5.8,5.8,89,0.00,,---,0.00,VWS V13.01,2013-08-24 08:58:00,
2013-08-24 02:03:00,65.5,62.2,30.14,WSW,253,3.6,3.6,89,0.00,,---,0.00,VWS V13.01,2013-08-24 09:03:00,
2013-08-24 02:08:00,65.5,62.2,30.14,WNW,286,3.6,3.6,89,0.00,,---,0.00,VWS V13.01,2013-08-24 09:08:00,
2013-08-24 02:13:00,65.5,62.2,30.14,West,281,3.6,3.6,89,0.00,,---,0.00,VWS V13.01,2013-08-24 09:13:00,
2013-08-24 02:18:00,65.5,62.2,30.14,NW,314,4.0,4.0,89,0.00,,---,0.00,VWS V13.01,2013-08-24 09:18:00,
2013-08-24 02:23:00,65.5,62.2,30.14,NW,324,4.0,4.0,89,0.00,,---,0.00,VWS V13.01,2013-08-24 09:23:00,
2013-08-24 02:28:00,65.5,62.2,30.14,NNW,328,5.4,5.4,89,0.00,,---,0.00,VWS V13.01,2013-08-24 09:28:00,
2013-08-24 02:33:00,65.5,62.2,30.11,NW,325,0.0,0.0,89,0.00,,---,0.00,VWS V13.01,2013-08-24 09:33:00,
2013-08-24 02:38:00,65.5,62.2,30.11,North,9,0.0,0.0,89,0.00,,---,0.00,VWS V13.01,2013-08-24 09:38:00,
2013-08-24 02:43:00,65.5,62.2,30.11,North,349,0.0,0.0,89,0.00,,---,0.00,VWS V13.01,2013-08-24 09:43:00,
2013-08-24 02:48:00,65.5,62.2,30.11,North,0,4.9,4.9,89,0.00,,---,0.00,VWS V13.01,2013-08-24 09:48:00,
2013-08-24 02:53:00,65.5,62.2,30.11,NNE,18,4.9,4.9,89,0.00,,---,0.00,VWS V13.01,2013-08-24 09:53:00,
2013-08-24 02:58:00,65.5,62.2,30.11,NNW,330,0.0,0.0,89,0.00,,---,0.00,VWS V13.01,2013-08-24 09:58:00,
2013-08-24 03:03:00,65.5,62.2,30.11,NNW,330,0.0,0.0,89,0.00,,---,0.00,VWS V13.01,2013-08-24 10:03:00,
2013-08-24 03:08:00,65.5,62.2,30.11,North,0,0.0,2.7,89,0.00,,---,0.00,VWS V13.01,2013-08-24 10:08:00,
2013-08-24 03:13:00,65.5,62.2,30.11,NNW,335,2.2,2.2,89,0.00,,---,0.00,VWS V13.01,2013-08-24 10:13:00,
2013-08-24 03:18:00,65.5,62.2,30.11,North,0,0.0,0.0,89,0.00,,---,0.00,VWS V13.01,2013-08-24 10:18:00,
2013-08-24 03:23:00,64.6,63.1,30.11,North,0,0.0,0.0,95,0.00,,---,0.00,VWS V13.01,2013-08-24 10:23:00,
2013-08-24 03:28:00,64.6,63.1,30.11,North,0,0.0,0.0,95,0.00,,---,0.00,VWS V13.01,2013-08-24 10:28:00,
2013-08-24 03:33:00,64.6,63.1,30.11,North,4,0.0,0.0,95,0.00,,---,0.00,VWS V13.01,2013-08-24 10:33:00,
2013-08-24 03:38:00,64.6,63.1,30.11,North,3,0.0,0.0,95,0.00,,---,0.00,VWS V13.01,2013-08-24 10:38:00,
2013-08-24 03:43:00,64.6,63.1,30.11,NNW,338,0.0,0.0,95,0.00,,---,0.00,VWS V13.01,2013-08-24 10:43:00,
2013-08-24 03:48:00,64.6,63.1,30.11,North,353,0.0,0.0,95,0.00,,---,0.00,VWS V13.01,2013-08-24 10:48:00,
2013-08-24 03:53:00,64.6,63.1,30.11,North,353,0.0,0.0,95,0.00,,---,0.00,VWS V13.01,2013-08-24 10:53:00,
2013-08-24 03:58:00,64.6,63.1,30.11,North,353,0.0,0.0,95,0.00,,---,0.00,VWS V13.01,2013-08-24 10:58:00,
2013-08-24 04:03:00,64.6,63.1,30.11,North,353,0.0,0.0,95,0.00,,---,0.00,VWS V13.01,2013-08-24 11:03:00,
2013-08-24 04:08:00,64.6,63.1,30.11,North,353,0.0,0.0,95,0.00,,---,0.00,VWS V13.01,2013-08-24 11:08:00,
2013-08-24 04:13:00,64.6,63.1,30.11,NNW,335,0.0,0.0,95,0.00,,---,0.00,VWS V13.01,2013-08-24 11:13:00,
2013-08-24 04:18:00,64.6,63.1,30.11,NNW,335,0.0,0.0,95,0.00,,---,0.00,VWS V13.01,2013-08-24 11:18:00,
2013-08-24 04:23:00,64.6,63.1,30.11,NNW,328,0.0,0.0,95,0.00,,---,0.00,VWS V13.01,2013-08-24 11:23:00,
2013-08-24 04:28:00,64.6,63.1,30.11,NW,322,0.0,0.0,95,0.00,,---,0.00,VWS V13.01,2013-08-24 11:28:00,
2013-08-24 04:33:00,64.6,63.1,30.11,NW,322,0.0,0.0,95,0.00,,---,0.00,VWS V13.01,2013-08-24 11:33:00,
2013-08-24 04:38:00,64.6,63.1,30.11,NW,322,0.0,0.0,95,0.00,,---,0.00,VWS V13.01,2013-08-24 11:38:00,
2013-08-24 04:43:00,64.6,63.1,30.11,NW,320,0.0,0.0,95,0.00,,---,0.00,VWS V13.01,2013-08-24 11:43:00,
2013-08-24 04:48:00,64.6,63.1,30.11,NW,319,0.0,0.0,95,0.00,,---,0.00,VWS V13.01,2013-08-24 11:48:00,
2013-08-24 04:53:00,64.6,63.1,30.11,NW,319,0.0,0.0,95,0.00,,---,0.00,VWS V13.01,2013-08-24 11:53:00,
2013-08-24 04:58:00,64.6,63.1,30.11,NW,319,0.0,0.0,95,0.00,,---,0.00,VWS V13.01,2013-08-24 11:58:00,
2013-08-24 05:03:00,64.4,60.8,30.11,NW,308,0.0,0.0,88,0.00,,---,0.00,VWS V13.01,2013-08-24 12:03:00,
2013-08-24 05:08:00,64.4,60.8,30.11,WNW,297,0.0,0.0,88,0.00,,---,0.00,VWS V13.01,2013-08-24 12:08:00,
2013-08-24 05:13:00,64.4,60.8,30.11,WNW,297,0.0,0.0,88,0.00,,---,0.00,VWS V13.01,2013-08-24 12:13:00,
2013-08-24 05:18:00,64.4,60.8,30.11,WNW,297,0.0,0.0,88,0.00,,---,0.00,VWS V13.01,2013-08-24 12:18:00,
2013-08-24 05:23:00,64.4,60.8,30.11,WNW,293,0.0,0.0,88,0.00,,---,0.00,VWS V13.01,2013-08-24 12:23:00,
2013-08-24 05:28:00,64.4,60.8,30.11,WNW,293,0.0,0.0,88,0.00,,---,0.00,VWS V13.01,2013-08-24 12:28:00,
2013-08-24 05:33:00,64.4,60.8,30.11,West,281,0.0,0.0,88,0.00,,---,0.00,VWS V13.01,2013-08-24 12:33:00,
2013-08-24 05:38:00,64.6,61.3,30.11,West,281,0.0,0.0,89,0.00,,---,0.00,VWS V13.01,2013-08-24 12:38:00,
2013-08-24 05:43:00,64.6,61.3,30.11,SSE,151,3.6,3.6,89,0.00,,---,0.00,VWS V13.01,2013-08-24 12:43:00,
2013-08-24 05:48:00,64.6,61.3,30.11,South,170,3.6,3.6,89,0.00,,---,0.00,VWS V13.01,2013-08-24 12:48:00,
2013-08-24 05:53:00,64.6,61.3,30.11,SSE,156,3.6,3.6,89,0.00,,---,0.00,VWS V13.01,2013-08-24 12:53:00,
2013-08-24 05:58:00,64.6,61.3,30.11,SSE,156,0.0,0.0,89,0.00,,---,0.00,VWS V13.01,2013-08-24 12:58:00,
2013-08-24 06:03:00,64.6,61.3,30.11,South,183,2.7,2.7,89,0.00,,---,0.00,VWS V13.01,2013-08-24 13:03:00,
2013-08-24 06:08:00,64.6,61.3,30.11,SSW,199,2.7,2.7,89,0.00,,---,0.00,VWS V13.01,2013-08-24 13:08:00,
2013-08-24 06:13:00,64.6,61.3,30.11,South,184,3.1,3.1,89,0.00,,---,0.00,VWS V13.01,2013-08-24 13:13:00,
2013-08-24 06:18:00,64.6,61.3,30.11,South,188,0.0,2.7,89,0.00,,---,0.00,VWS V13.01,2013-08-24 13:18:00,
2013-08-24 06:23:00,64.6,61.3,30.11,South,185,2.7,2.7,89,0.00,,---,0.00,VWS V13.01,2013-08-24 13:23:00,
2013-08-24 06:28:00,64.6,61.3,30.11,South,180,2.7,2.7,89,0.00,,---,0.00,VWS V13.01,2013-08-24 13:28:00,
2013-08-24 06:33:00,65.1,61.8,30.14,South,175,3.6,3.6,89,0.00,,---,0.00,VWS V13.01,2013-08-24 13:33:00,
2013-08-24 06:38:00,65.3,62.0,30.14,SSW,197,3.1,4.9,89,0.00,,---,0.00,VWS V13.01,2013-08-24 13:38:00,
2013-08-24 06:43:00,65.7,62.3,30.14,South,188,5.4,5.8,89,0.00,,---,0.00,VWS V13.01,2013-08-24 13:43:00,
2013-08-24 06:48:00,66.0,62.0,30.14,South,185,3.1,5.8,87,0.00,,---,0.00,VWS V13.01,2013-08-24 13:48:00,
2013-08-24 06:53:00,66.0,61.7,30.14,South,178,3.6,4.9,86,0.00,,---,0.00,VWS V13.01,2013-08-24 13:53:00,
2013-08-24 06:58:00,66.2,61.2,30.14,SSE,161,4.0,4.0,84,0.00,,---,0.00,VWS V13.01,2013-08-24 13:58:00,
2013-08-24 07:03:00,66.6,61.6,30.14,South,185,3.6,3.6,84,0.00,,---,0.00,VWS V13.01,2013-08-24 14:03:00,
2013-08-24 07:08:00,66.9,61.6,30.14,SSE,149,2.7,4.9,83,0.00,,---,0.00,VWS V13.01,2013-08-24 14:08:00,
2013-08-24 07:13:00,67.3,61.6,30.14,South,178,2.7,4.0,82,0.00,,---,0.00,VWS V13.01,2013-08-24 14:13:00,
2013-08-24 07:18:00,67.5,61.4,30.14,SSE,162,2.7,5.8,81,0.00,,---,0.00,VWS V13.01,2013-08-24 14:18:00,
2013-08-24 07:23:00,67.6,61.6,30.14,SE,140,3.1,4.0,81,0.00,,---,0.00,VWS V13.01,2013-08-24 14:23:00,
2013-08-24 07:28:00,67.8,62.1,30.14,SSE,151,4.0,5.4,82,0.00,,---,0.00,VWS V13.01,2013-08-24 14:28:00,
2013-08-24 07:33:00,67.8,62.1,30.14,SE,133,4.0,5.4,82,0.00,,---,0.00,VWS V13.01,2013-08-24 14:33:00,
2013-08-24 07:38:00,68.0,62.0,30.14,SE,132,0.0,2.7,81,0.00,,---,0.00,VWS V13.01,2013-08-24 14:38:00,
2013-08-24 07:43:00,68.2,62.1,30.14,SE,133,0.0,2.7,81,0.00,,---,0.00,VWS V13.01,2013-08-24 14:43:00,
2013-08-24 07:48:00,68.9,62.5,30.14,SE,132,0.0,0.0,80,0.00,,---,0.00,VWS V13.01,2013-08-24 14:48:00,
2013-08-24 07:53:00,69.3,61.8,30.14,SE,132,0.0,0.0,77,0.00,,---,0.00,VWS V13.01,2013-08-24 14:53:00,
2013-08-24 07:58:00,69.4,61.5,30.14,SE,132,0.0,0.0,76,0.00,,---,0.00,VWS V13.01,2013-08-24 14:58:00,
2013-08-24 08:03:00,69.8,61.5,30.11,ESE,106,0.0,0.0,75,0.00,,---,0.00,VWS V13.01,2013-08-24 15:03:00,
2013-08-24 08:08:00,70.7,61.2,30.11,ESE,121,4.0,5.4,72,0.00,,---,0.00,VWS V13.01,2013-08-24 15:08:00,
2013-08-24 08:13:00,71.1,62.0,30.11,ESE,121,5.4,5.4,73,0.00,,---,0.00,VWS V13.01,2013-08-24 15:13:00,
2013-08-24 08:18:00,71.4,62.3,30.14,SE,130,5.4,5.8,73,0.00,,---,0.00,VWS V13.01,2013-08-24 15:18:00,
2013-08-24 08:23:00,71.6,61.7,30.14,SE,126,8.3,8.3,71,0.00,,---,0.00,VWS V13.01,2013-08-24 15:23:00,
2013-08-24 08:28:00,72.0,62.0,30.14,ESE,120,6.3,6.3,71,0.00,,---,0.00,VWS V13.01,2013-08-24 15:28:00,
2013-08-24 08:33:00,72.3,62.4,30.11,SE,125,4.9,4.9,71,0.00,,---,0.00,VWS V13.01,2013-08-24 15:33:00,
2013-08-24 08:38:00,72.5,62.2,30.11,ENE,74,3.6,4.0,70,0.00,,---,0.00,VWS V13.01,2013-08-24 15:38:00,
2013-08-24 08:43:00,72.7,62.7,30.11,ESE,106,5.8,5.8,71,0.00,,---,0.00,VWS V13.01,2013-08-24 15:43:00,
2013-08-24 08:48:00,72.7,62.7,30.14,ENE,76,4.0,4.0,71,0.00,,---,0.00,VWS V13.01,2013-08-24 15:48:00,
2013-08-24 08:53:00,72.7,62.7,30.14,ESE,102,6.3,6.3,71,0.00,,---,0.00,VWS V13.01,2013-08-24 15:53:00,
2013-08-24 08:58:00,72.7,62.7,30.14,East,95,5.8,5.8,71,0.00,,---,0.00,VWS V13.01,2013-08-24 15:58:00,
2013-08-24 09:03:00,72.7,62.7,30.14,East,89,5.4,5.4,71,0.00,,---,0.00,VWS V13.01,2013-08-24 16:03:00,
2013-08-24 09:09:00,72.7,62.7,30.14,East,97,4.9,4.9,71,0.00,,---,0.00,VWS V13.01,2013-08-24 16:09:00,
2013-08-24 09:14:00,72.7,62.7,30.14,ESE,112,2.7,2.7,71,0.00,,---,0.00,VWS V13.01,2013-08-24 16:14:00,
2013-08-24 09:19:00,72.7,62.7,30.14,ENE,70,3.1,3.6,71,0.00,,---,0.00,VWS V13.01,2013-08-24 16:19:00,
2013-08-24 09:24:00,72.7,62.7,30.14,East,84,3.6,3.6,71,0.00,,---,0.00,VWS V13.01,2013-08-24 16:24:00,
2013-08-24 09:29:00,72.7,62.7,30.14,East,96,2.7,2.7,71,0.00,,---,0.00,VWS V13.01,2013-08-24 16:29:00,
2013-08-24 09:34:00,72.7,62.7,30.14,East,96,2.7,2.7,71,0.00,,---,0.00,VWS V13.01,2013-08-24 16:34:00,
2013-08-24 09:39:00,72.7,62.7,30.14,ESE,103,3.1,3.1,71,0.00,,---,0.00,VWS V13.01,2013-08-24 16:39:00,
2013-08-24 09:44:00,72.7,62.7,30.14,SE,144,4.0,4.0,71,0.00,,---,0.00,VWS V13.01,2013-08-24 16:44:00,
2013-08-24 09:49:00,72.7,62.7,30.11,East,98,2.7,2.7,71,0.00,,---,0.00,VWS V13.01,2013-08-24 16:49:00,
2013-08-24 09:54:00,72.7,62.7,30.11,SE,132,2.7,2.7,71,0.00,,---,0.00,VWS V13.01,2013-08-24 16:54:00,
2013-08-24 09:59:00,72.7,62.7,30.11,ESE,119,0.0,0.0,71,0.00,,---,0.00,VWS V13.01,2013-08-24 16:59:00,
2013-08-24 10:04:00,72.7,62.7,30.11,ESE,105,0.0,0.0,71,0.00,,---,0.00,VWS V13.01,2013-08-24 17:04:00,
2013-08-24 10:09:00,72.7,62.7,30.11,East,95,2.7,2.7,71,0.00,,---,0.00,VWS V13.01,2013-08-24 17:09:00,
2013-08-24 10:14:00,72.7,62.7,30.11,ESE,105,2.7,4.0,71,0.00,,---,0.00,VWS V13.01,2013-08-24 17:14:00,
2013-08-24 10:19:00,72.7,62.7,30.11,SE,124,2.2,2.2,71,0.00,,---,0.00,VWS V13.01,2013-08-24 17:19:00,
2013-08-24 10:24:00,72.7,62.7,30.11,East,95,2.7,2.7,71,0.00,,---,0.00,VWS V13.01,2013-08-24 17:24:00,
2013-08-24 10:29:00,72.7,62.7,30.11,East,93,3.6,3.6,71,0.00,,---,0.00,VWS V13.01,2013-08-24 17:29:00,
2013-08-24 10:34:00,72.7,62.7,30.11,East,89,4.0,4.0,71,0.00,,---,0.00,VWS V13.01,2013-08-24 17:34:00,
2013-08-24 10:39:00,72.7,62.7,30.11,East,86,2.7,2.7,71,0.00,,---,0.00,VWS V13.01,2013-08-24 17:39:00,
2013-08-24 10:44:00,72.7,62.7,30.11,SE,138,5.8,5.8,71,0.00,,---,0.00,VWS V13.01,2013-08-24 17:44:00,
2013-08-24 10:49:00,72.7,62.7,30.11,NE,56,0.0,0.0,71,0.00,,---,0.00,VWS V13.01,2013-08-24 17:49:00,
2013-08-24 10:54:00,72.7,62.7,30.11,NE,56,0.0,0.0,71,0.00,,---,0.00,VWS V13.01,2013-08-24 17:54:00,
2013-08-24 10:59:00,72.7,62.7,30.11,ESE,108,3.6,3.6,71,0.00,,---,0.00,VWS V13.01,2013-08-24 17:59:00,
2013-08-24 11:04:00,72.7,62.7,30.11,ESE,108,3.6,3.6,71,0.00,,---,0.00,VWS V13.01,2013-08-24 18:04:00,
2013-08-24 11:09:00,72.7,62.7,30.11,SE,127,5.4,7.6,71,0.00,,---,0.00,VWS V13.01,2013-08-24 18:09:00,
2013-08-24 11:14:00,72.7,62.7,30.11,ESE,114,4.0,4.0,71,0.00,,---,0.00,VWS V13.01,2013-08-24 18:14:00,
2013-08-24 11:19:00,72.7,62.7,30.14,South,174,2.7,2.7,71,0.00,,---,0.00,VWS V13.01,2013-08-24 18:19:00,
2013-08-24 11:24:00,72.7,62.7,30.14,ESE,111,3.1,3.1,71,0.00,,---,0.00,VWS V13.01,2013-08-24 18:24:00,
2013-08-24 11:29:00,72.7,62.7,30.14,ESE,115,3.1,3.1,71,0.00,,---,0.00,VWS V13.01,2013-08-24 18:29:00,
2013-08-24 11:34:00,72.7,62.7,30.11,SE,130,4.0,4.0,71,0.00,,---,0.00,VWS V13.01,2013-08-24 18:34:00,
2013-08-24 11:39:00,72.7,62.7,30.11,SE,130,2.2,2.2,71,0.00,,---,0.00,VWS V13.01,2013-08-24 18:39:00,
2013-08-24 11:44:00,72.7,62.7,30.11,ESE,108,4.0,4.9,71,0.00,,---,0.00,VWS V13.01,2013-08-24 18:44:00,
2013-08-24 11:49:00,72.7,62.7,30.11,SSE,153,2.7,2.7,71,0.00,,---,0.00,VWS V13.01,2013-08-24 18:49:00,
2013-08-24 11:54:00,72.7,62.7,30.11,SE,134,3.1,3.1,71,0.00,,---,0.00,VWS V13.01,2013-08-24 18:54:00,
2013-08-24 11:59:00,72.7,62.7,30.11,SE,134,0.0,0.0,71,0.00,,---,0.00,VWS V13.01,2013-08-24 18:59:00,
2013-08-24 12:00:00,72.7,62.7,30.11,SE,134,0.0,0.0,71,0.00,,---,0.00,VWS V13.01,2013-08-24 19:00:00,
2013-08-24 15:35:00,81.0,57.0,30.08,NW,307,4.0,4.0,44,0.00,,---,0.00,VWS V13.01,2013-08-24 22:35:00,
2013-08-24 15:40:00,81.0,57.0,30.08,NW,307,4.0,4.0,44,0.00,,---,0.00,VWS V13.01,2013-08-24 22:40:00,
2013-08-24 15:45:00,81.0,57.0,30.08,WNW,284,2.2,2.2,44,0.00,,---,0.00,VWS V13.01,2013-08-24 22:45:00,
2013-08-24 15:50:00,81.0,57.0,30.08,NNW,341,5.8,5.8,44,0.00,,---,0.00,VWS V13.01,2013-08-24 22:50:00,
2013-08-24 15:55:00,81.0,57.0,30.08,NW,323,4.0,4.0,44,0.00,,---,0.00,VWS V13.01,2013-08-24 22:55:00,
2013-08-24 16:00:00,81.0,57.0,30.05,NNW,341,3.6,3.6,44,0.00,,---,0.00,VWS V13.01,2013-08-24 23:00:00,
2013-08-24 16:05:00,81.0,57.0,30.05,NW,326,4.0,4.0,44,0.00,,---,0.00,VWS V13.01,2013-08-24 23:05:00,
2013-08-24 16:10:00,81.0,57.0,30.05,North,357,0.0,2.2,44,0.00,,---,0.00,VWS V13.01,2013-08-24 23:10:00,
2013-08-24 16:15:00,81.0,57.0,30.05,North,353,0.0,0.0,44,0.00,,---,0.00,VWS V13.01,2013-08-24 23:15:00,
2013-08-24 16:20:00,81.0,57.0,30.05,NNW,338,3.6,3.6,44,0.00,,---,0.00,VWS V13.01,2013-08-24 23:20:00,
2013-08-24 16:25:00,81.0,57.0,30.05,NNW,338,3.6,3.6,44,0.00,,---,0.00,VWS V13.01,2013-08-24 23:25:00,
2013-08-24 16:30:00,81.0,57.0,30.05,North,353,0.0,0.0,44,0.00,,---,0.00,VWS V13.01,2013-08-24 23:30:00,
2013-08-24 16:35:00,81.0,57.0,30.05,North,353,0.0,0.0,44,0.00,,---,0.00,VWS V13.01,2013-08-24 23:35:00,
2013-08-24 16:40:00,81.0,57.0,30.05,NNW,342,0.0,0.0,44,0.00,,---,0.00,VWS V13.01,2013-08-24 23:40:00,
2013-08-24 16:45:00,81.0,57.0,30.05,NNE,29,0.0,0.0,44,0.00,,---,0.00,VWS V13.01,2013-08-24 23:45:00,
2013-08-24 16:50:00,81.0,57.0,30.05,NNE,31,0.0,0.0,44,0.00,,---,0.00,VWS V13.01,2013-08-24 23:50:00,
2013-08-24 16:55:00,81.0,57.0,30.05,NNE,31,0.0,0.0,44,0.00,,---,0.00,VWS V13.01,2013-08-24 23:55:00,
2013-08-24 17:00:00,81.0,57.0,30.05,NNE,31,0.0,0.0,44,0.00,,---,0.00,VWS V13.01,2013-08-25 00:00:00,
2013-08-24 17:05:00,81.0,57.0,30.05,NNE,31,0.0,0.0,44,0.00,,---,0.00,VWS V13.01,2013-08-25 00:05:00,
2013-08-24 17:10:00,81.0,57.0,30.05,NNE,31,0.0,0.0,44,0.00,,---,0.00,VWS V13.01,2013-08-25 00:10:00,
2013-08-24 17:15:00,81.0,57.0,30.05,NNE,31,0.0,0.0,44,0.00,,---,0.00,VWS V13.01,2013-08-25 00:15:00,
2013-08-24 17:20:00,81.0,57.0,30.05,NNE,31,0.0,0.0,44,0.00,,---,0.00,VWS V13.01,2013-08-25 00:20:00,
2013-08-24 17:25:00,81.0,57.0,30.05,ESE,111,3.6,3.6,44,0.00,,---,0.00,VWS V13.01,2013-08-25 00:25:00,
2013-08-24 17:30:00,81.0,57.0,30.05,ESE,111,3.6,3.6,44,0.00,,---,0.00,VWS V13.01,2013-08-25 00:30:00,
2013-08-24 17:35:00,81.0,57.0,30.05,SE,141,4.0,4.0,44,0.00,,---,0.00,VWS V13.01,2013-08-25 00:35:00,
2013-08-24 17:40:00,81.0,57.0,30.05,SE,141,4.0,4.0,44,0.00,,---,0.00,VWS V13.01,2013-08-25 00:40:00,
2013-08-24 17:45:00,81.0,57.0,30.05,SE,141,3.6,3.6,44,0.00,,---,0.00,VWS V13.01,2013-08-25 00:45:00,
2013-08-24 17:50:00,81.0,57.0,30.05,SE,141,4.9,4.9,44,0.00,,---,0.00,VWS V13.01,2013-08-25 00:50:00,
2013-08-24 17:55:00,81.0,57.0,30.05,SE,141,4.9,4.9,44,0.00,,---,0.00,VWS V13.01,2013-08-25 00:55:00,
2013-08-24 18:00:00,81.0,57.0,30.05,SSE,150,3.6,3.6,44,0.00,,---,0.00,VWS V13.01,2013-08-25 01:00:00,
2013-08-24 18:05:00,81.0,57.0,30.05,SSE,150,3.6,3.6,44,0.00,,---,0.00,VWS V13.01,2013-08-25 01:05:00,
2013-08-24 18:10:00,81.0,57.0,30.05,SE,137,5.8,5.8,44,0.00,,---,0.00,VWS V13.01,2013-08-25 01:10:00,
2013-08-24 18:15:00,81.0,57.0,30.08,SE,140,3.6,3.6,44,0.00,,---,0.00,VWS V13.01,2013-08-25 01:15:00,
2013-08-24 18:20:00,81.0,57.0,30.08,SE,140,3.6,3.6,44,0.00,,---,0.00,VWS V13.01,2013-08-25 01:20:00,
2013-08-24 18:25:00,81.0,57.0,30.08,SE,140,3.6,3.6,44,0.00,,---,0.00,VWS V13.01,2013-08-25 01:25:00,
2013-08-24 18:30:00,81.0,57.0,30.08,SSE,160,4.9,4.9,44,0.00,,---,0.00,VWS V13.01,2013-08-25 01:30:00,
2013-08-24 18:35:00,81.0,57.0,30.08,SSE,151,5.4,5.4,44,0.00,,---,0.00,VWS V13.01,2013-08-25 01:35:00,
2013-08-24 18:40:00,81.0,57.0,30.08,SE,146,4.0,4.0,44,0.00,,---,0.00,VWS V13.01,2013-08-25 01:40:00,
2013-08-24 18:45:00,81.0,57.0,30.08,SE,146,4.0,4.0,44,0.00,,---,0.00,VWS V13.01,2013-08-25 01:45:00,
2013-08-24 18:50:00,81.0,57.0,30.08,SSE,158,2.7,4.0,44,0.00,,---,0.00,VWS V13.01,2013-08-25 01:50:00,
2013-08-24 18:55:00,81.0,57.0,30.08,SE,140,5.4,5.4,44,0.00,,---,0.00,VWS V13.01,2013-08-25 01:55:00,
2013-08-24 19:00:00,81.0,57.0,30.11,SE,135,5.4,5.4,44,0.00,,---,0.00,VWS V13.01,2013-08-25 02:00:00,
2013-08-24 19:05:00,81.0,57.0,30.11,ESE,119,8.1,8.1,44,0.00,,---,0.00,VWS V13.01,2013-08-25 02:05:00,
2013-08-24 19:10:00,81.0,57.0,30.11,SE,126,8.1,8.1,44,0.00,,---,0.00,VWS V13.01,2013-08-25 02:10:00,
2013-08-24 19:15:00,81.0,57.0,30.11,ESE,123,8.7,8.7,44,0.00,,---,0.00,VWS V13.01,2013-08-25 02:15:00,
2013-08-24 19:20:00,81.0,57.0,30.11,ESE,119,8.1,8.1,44,0.00,,---,0.00,VWS V13.01,2013-08-25 02:20:00,
2013-08-24 19:25:00,81.0,57.0,30.11,East,100,7.6,7.6,44,0.00,,---,0.00,VWS V13.01,2013-08-25 02:25:00,
2013-08-24 19:30:00,81.0,57.0,30.11,SE,129,11.0,11.0,44,0.00,,---,0.00,VWS V13.01,2013-08-25 02:30:00,
2013-08-24 19:35:00,81.0,57.0,30.11,SE,127,5.4,5.4,44,0.00,,---,0.00,VWS V13.01,2013-08-25 02:35:00,
2013-08-24 19:40:00,81.0,57.0,30.11,SE,128,5.8,7.6,44,0.00,,---,0.00,VWS V13.01,2013-08-25 02:40:00,
2013-08-24 19:45:00,81.0,57.0,30.11,SE,133,7.6,7.6,44,0.00,,---,0.00,VWS V13.01,2013-08-25 02:45:00,
2013-08-24 19:50:00,81.0,57.0,30.11,SE,133,7.6,7.6,44,0.00,,---,0.00,VWS V13.01,2013-08-25 02:50:00,
2013-08-24 19:55:00,81.0,57.0,30.11,SE,136,7.6,7.6,44,0.00,,---,0.00,VWS V13.01,2013-08-25 02:55:00,
2013-08-24 20:00:00,81.0,57.0,30.11,SE,137,7.6,7.6,44,0.00,,---,0.00,VWS V13.01,2013-08-25 03:00:00,
2013-08-24 20:05:00,81.0,57.0,30.11,SE,135,5.8,5.8,44,0.00,,---,0.00,VWS V13.01,2013-08-25 03:05:00,
2013-08-24 20:10:00,81.0,57.0,30.11,SE,143,4.0,4.0,44,0.00,,---,0.00,VWS V13.01,2013-08-25 03:10:00,
2013-08-24 20:15:00,81.0,57.0,30.11,SE,143,3.6,5.4,44,0.00,,---,0.00,VWS V13.01,2013-08-25 03:15:00,
2013-08-24 20:20:00,81.0,57.0,30.11,SE,145,4.9,4.9,44,0.00,,---,0.00,VWS V13.01,2013-08-25 03:20:00,
2013-08-24 20:25:00,81.0,57.0,30.11,SE,145,4.9,4.9,44,0.00,,---,0.00,VWS V13.01,2013-08-25 03:25:00,
2013-08-24 20:30:00,81.0,57.0,30.11,SE,145,4.9,4.9,44,0.00,,---,0.00,VWS V13.01,2013-08-25 03:30:00,
2013-08-24 20:35:00,81.0,57.0,30.11,SE,145,2.7,2.7,44,0.00,,---,0.00,VWS V13.01,2013-08-25 03:35:00,
2013-08-24 20:40:00,81.0,57.0,30.11,SSE,152,5.8,5.8,44,0.00,,---,0.00,VWS V13.01,2013-08-25 03:40:00,
2013-08-24 20:45:00,81.0,57.0,30.11,SSE,152,0.0,0.0,44,0.00,,---,0.00,VWS V13.01,2013-08-25 03:45:00,
2013-08-24 20:50:00,81.0,57.0,30.11,SSE,152,0.0,0.0,44,0.00,,---,0.00,VWS V13.01,2013-08-25 03:50:00,
2013-08-24 20:55:00,81.0,57.0,30.11,SSE,152,0.0,0.0,44,0.00,,---,0.00,VWS V13.01,2013-08-25 03:55:00,
2013-08-24 21:00:00,81.0,57.0,30.14,SE,125,5.4,5.4,44,0.00,,---,0.00,VWS V13.01,2013-08-25 04:00:00,
2013-08-24 21:01:00,81.0,57.0,30.14,SE,126,7.2,7.2,44,0.00,,---,0.00,VWS V13.01,2013-08-25 04:01:00,
2013-08-24 21:02:00,81.0,57.0,30.14,SE,126,7.2,7.2,44,0.00,,---,0.00,VWS V13.01,2013-08-25 04:02:00,
2013-08-24 21:07:00,81.0,57.0,30.14,SE,136,4.0,4.0,44,0.00,,---,0.00,VWS V13.01,2013-08-25 04:07:00,
2013-08-24 21:12:00,81.0,57.0,30.14,SE,136,4.0,4.0,44,0.00,,---,0.00,VWS V13.01,2013-08-25 04:12:00,
2013-08-24 21:17:00,81.0,57.0,30.14,SE,136,3.6,3.6,44,0.00,,---,0.00,VWS V13.01,2013-08-25 04:17:00,
2013-08-24 21:22:00,81.0,57.0,30.14,SE,136,3.6,3.6,44,0.00,,---,0.00,VWS V13.01,2013-08-25 04:22:00,
2013-08-24 21:27:00,81.0,57.0,30.14,ESE,122,3.6,3.6,44,0.00,,---,0.00,VWS V13.01,2013-08-25 04:27:00,
2013-08-24 21:32:00,81.0,57.0,30.14,ESE,122,3.6,3.6,44,0.00,,---,0.00,VWS V13.01,2013-08-25 04:32:00,
2013-08-24 21:37:00,81.0,57.0,30.14,East,100,3.6,4.9,44,0.00,,---,0.00,VWS V13.01,2013-08-25 04:37:00,
2013-08-24 21:42:00,81.0,57.0,30.14,SE,127,4.9,5.8,44,0.00,,---,0.00,VWS V13.01,2013-08-25 04:42:00,
2013-08-24 21:47:00,81.0,57.0,30.14,SE,132,5.4,5.4,44,0.00,,---,0.00,VWS V13.01,2013-08-25 04:47:00,
2013-08-24 21:52:00,81.0,57.0,30.14,ESE,118,5.8,5.8,44,0.00,,---,0.00,VWS V13.01,2013-08-25 04:52:00,
2013-08-24 21:57:00,81.0,57.0,30.14,ESE,117,3.1,3.1,44,0.00,,---,0.00,VWS V13.01,2013-08-25 04:57:00,
2013-08-24 22:02:00,81.0,57.0,30.14,SE,129,2.7,2.7,44,0.00,,---,0.00,VWS V13.01,2013-08-25 05:02:00,
2013-08-24 22:07:00,81.0,57.0,30.14,SE,129,0.0,0.0,44,0.00,,---,0.00,VWS V13.01,2013-08-25 05:07:00,
2013-08-24 22:12:00,81.0,57.0,30.14,SE,129,0.0,0.0,44,0.00,,---,0.00,VWS V13.01,2013-08-25 05:12:00,
2013-08-24 22:17:00,81.0,57.0,30.14,SE,129,0.0,0.0,44,0.00,,---,0.00,VWS V13.01,2013-08-25 05:17:00,
2013-08-24 22:22:00,81.0,57.0,30.14,SE,129,0.0,0.0,44,0.00,,---,0.00,VWS V13.01,2013-08-25 05:22:00,
2013-08-24 22:27:00,81.0,57.0,30.14,SE,129,0.0,0.0,44,0.00,,---,0.00,VWS V13.01,2013-08-25 05:27:00,
2013-08-24 22:32:00,81.0,57.0,30.14,SE,129,0.0,0.0,44,0.00,,---,0.00,VWS V13.01,2013-08-25 05:32:00,
2013-08-24 22:37:00,81.0,57.0,30.14,SE,129,0.0,0.0,44,0.00,,---,0.00,VWS V13.01,2013-08-25 05:37:00,
2013-08-24 22:42:00,81.0,57.0,30.14,SE,129,0.0,0.0,44,0.00,,---,0.00,VWS V13.01,2013-08-25 05:42:00,
2013-08-24 22:47:00,81.0,57.0,30.14,SE,129,0.0,0.0,44,0.00,,---,0.00,VWS V13.01,2013-08-25 05:47:00,
2013-08-24 22:52:00,81.0,57.0,30.14,SE,129,0.0,0.0,44,0.00,,---,0.00,VWS V13.01,2013-08-25 05:52:00,
2013-08-24 22:57:00,81.0,57.0,30.14,SE,129,0.0,0.0,44,0.00,,---,0.00,VWS V13.01,2013-08-25 05:57:00,
2013-08-24 23:02:00,81.0,57.0,30.14,SE,129,0.0,0.0,44,0.00,,---,0.00,VWS V13.01,2013-08-25 06:02:00,
2013-08-24 23:07:00,81.0,57.0,30.14,SE,129,0.0,0.0,44,0.00,,---,0.00,VWS V13.01,2013-08-25 06:07:00,
2013-08-24 23:12:00,81.0,57.0,30.14,SE,129,0.0,0.0,44,0.00,,---,0.00,VWS V13.01,2013-08-25 06:12:00,
2013-08-24 23:17:00,81.0,57.0,30.14,SE,129,0.0,0.0,44,0.00,,---,0.00,VWS V13.01,2013-08-25 06:17:00,
2013-08-24 23:22:00,81.0,57.0,30.14,SE,129,0.0,0.0,44,0.00,,---,0.00,VWS V13.01,2013-08-25 06:22:00,
2013-08-24 23:27:00,81.0,57.0,30.14,SE,129,0.0,0.0,44,0.00,,---,0.00,VWS V13.01,2013-08-25 06:27:00,
2013-08-24 23:32:00,81.0,57.0,30.14,SE,129,0.0,0.0,44,0.00,,---,0.00,VWS V13.01,2013-08-25 06:32:00,
2013-08-24 23:37:00,81.0,57.0,30.14,SE,129,0.0,0.0,44,0.00,,---,0.00,VWS V13.01,2013-08-25 06:37:00,
2013-08-24 23:42:00,81.0,57.0,30.14,SE,129,0.0,0.0,44,0.00,,---,0.00,VWS V13.01,2013-08-25 06:42:00,
2013-08-24 23:47:00,81.0,57.0,30.14,SE,129,0.0,0.0,44,0.00,,---,0.00,VWS V13.01,2013-08-25 06:47:00,
2013-08-24 23:52:00,81.0,57.0,30.14,SE,129,0.0,0.0,44,0.00,,---,0.00,VWS V13.01,2013-08-25 06:52:00,
2013-08-24 23:57:00,81.0,57.0,30.14,SE,129,0.0,0.0,44,0.00,,---,0.00,VWS V13.01,2013-08-25 06:57:00,